createdAt,value
2018-05-10T00:01:24.412Z,17.60
2018-05-10T00:03:52.595Z,17.70
2018-05-10T00:06:20.033Z,17.70
2018-05-10T00:08:47.469Z,17.70
2018-05-10T00:11:14.900Z,17.80
2018-05-10T00:13:42.324Z,17.80
2018-05-10T00:16:09.754Z,17.80
2018-05-10T00:18:37.187Z,17.80
2018-05-10T00:21:04.625Z,17.80
2018-05-10T00:23:32.051Z,17.80
2018-05-10T00:26:00.309Z,17.80
2018-05-10T00:28:28.525Z,17.80
2018-05-10T00:30:55.954Z,17.80
2018-05-10T00:33:24.156Z,17.80
2018-05-10T00:35:51.579Z,17.80
2018-05-10T00:38:19.792Z,17.80
2018-05-10T00:40:47.222Z,17.80
2018-05-10T00:43:15.420Z,17.90
2018-05-10T00:45:42.849Z,17.90
2018-05-10T00:48:11.052Z,17.90
2018-05-10T00:50:38.478Z,17.90
2018-05-10T00:53:06.670Z,17.80
2018-05-10T00:55:34.114Z,17.80
2018-05-10T00:58:02.314Z,17.80
2018-05-10T01:00:29.743Z,17.80
2018-05-10T01:02:57.958Z,17.80
2018-05-10T01:05:25.384Z,17.80
2018-05-10T01:07:52.814Z,17.90
2018-05-10T01:10:21.001Z,17.90
2018-05-10T01:12:49.202Z,17.90
2018-05-10T01:15:16.616Z,17.90
2018-05-10T01:17:44.826Z,17.90
2018-05-10T01:20:12.259Z,17.90
2018-05-10T01:22:40.459Z,17.80
2018-05-10T01:25:07.893Z,17.80
2018-05-10T01:27:36.087Z,17.90
2018-05-10T01:30:03.510Z,17.90
2018-05-10T01:32:30.943Z,17.90
2018-05-10T01:35:10.314Z,17.80
2018-05-10T01:37:38.526Z,17.80
2018-05-10T01:40:05.945Z,17.80
2018-05-10T01:42:34.142Z,17.80
2018-05-10T01:45:01.570Z,17.80
2018-05-10T01:47:29.771Z,17.80
2018-05-10T01:49:57.188Z,17.80
2018-05-10T01:52:24.619Z,17.90
2018-05-10T01:54:52.111Z,17.90
2018-05-10T01:57:19.547Z,17.90
2018-05-10T01:59:46.974Z,17.90
2018-05-10T02:02:14.413Z,17.90
2018-05-10T02:04:41.841Z,17.90
2018-05-10T02:07:09.276Z,17.80
2018-05-10T02:09:36.711Z,17.80
2018-05-10T02:12:04.141Z,17.80
2018-05-10T02:14:31.572Z,17.80
2018-05-10T02:16:59.789Z,17.80
2018-05-10T02:19:27.241Z,17.80
2018-05-10T02:21:54.675Z,17.70
2018-05-10T02:24:22.901Z,17.70
2018-05-10T02:26:50.336Z,17.70
2018-05-10T02:29:17.766Z,17.70
2018-05-10T02:31:45.974Z,17.70
2018-05-10T02:34:13.410Z,17.70
2018-05-10T02:36:40.846Z,17.70
2018-05-10T02:39:09.039Z,17.80
2018-05-10T02:41:36.458Z,17.80
2018-05-10T02:44:03.903Z,17.80
2018-05-10T02:46:31.342Z,17.80
2018-05-10T02:48:58.771Z,17.90
2018-05-10T02:51:26.197Z,17.90
2018-05-10T02:53:54.407Z,17.80
2018-05-10T02:56:22.224Z,17.80
2018-05-10T02:58:49.708Z,17.90
2018-05-10T03:01:17.896Z,17.80
2018-05-10T03:03:45.337Z,17.80
2018-05-10T03:06:13.539Z,17.70
2018-05-10T03:08:40.974Z,17.70
2018-05-10T03:11:09.158Z,17.60
2018-05-10T03:13:36.601Z,17.60
2018-05-10T03:16:04.791Z,17.50
2018-05-10T03:18:32.222Z,17.40
2018-05-10T03:21:00.415Z,17.20
2018-05-10T03:23:27.862Z,17.20
2018-05-10T03:25:56.068Z,17.20
2018-05-10T03:28:23.521Z,17.10
2018-05-10T03:30:50.953Z,17.10
2018-05-10T03:33:19.202Z,16.90
2018-05-10T03:35:46.595Z,16.90
2018-05-10T03:38:14.039Z,16.90
2018-05-10T03:40:42.250Z,17.10
2018-05-10T03:43:09.698Z,17.00
2018-05-10T03:45:37.115Z,17.10
2018-05-10T03:48:05.334Z,17.10
2018-05-10T03:50:32.767Z,17.10
2018-05-10T03:53:00.215Z,17.20
2018-05-10T03:55:28.420Z,17.10
2018-05-10T03:57:55.863Z,17.10
2018-05-10T04:00:23.300Z,17.00
2018-05-10T04:06:15.030Z,16.90
2018-05-10T04:08:54.249Z,16.60
2018-05-10T04:11:25.323Z,16.70
2018-05-10T04:13:53.527Z,16.80
2018-05-10T04:16:20.958Z,16.80
2018-05-10T04:18:50.994Z,16.80
2018-05-10T04:21:18.441Z,16.80
2018-05-10T04:23:46.670Z,16.90
2018-05-10T04:26:14.105Z,16.90
2018-05-10T04:28:41.549Z,16.90
2018-05-10T04:31:08.987Z,16.90
2018-05-10T04:33:36.431Z,16.90
2018-05-10T04:36:04.626Z,16.90
2018-05-10T04:38:32.070Z,16.90
2018-05-10T04:41:00.270Z,16.90
2018-05-10T04:43:27.748Z,16.90
2018-05-10T04:45:55.990Z,16.90
2018-05-10T04:48:23.523Z,16.90
2018-05-10T04:50:50.936Z,16.90
2018-05-10T04:53:18.376Z,17.00
2018-05-10T04:55:45.823Z,17.00
2018-05-10T04:58:13.253Z,17.00
2018-05-10T05:00:41.462Z,16.90
2018-05-10T05:03:08.886Z,16.90
2018-05-10T05:05:37.187Z,16.90
2018-05-10T05:08:04.623Z,16.90
2018-05-10T05:10:32.833Z,17.00
2018-05-10T05:13:00.275Z,17.00
2018-05-10T05:15:27.724Z,17.00
2018-05-10T05:17:55.159Z,17.10
2018-05-10T05:20:22.614Z,17.00
2018-05-10T05:22:50.820Z,17.10
2018-05-10T05:25:18.270Z,17.10
2018-05-10T05:27:45.702Z,17.10
2018-05-10T05:30:13.184Z,17.10
2018-05-10T05:32:40.632Z,17.20
2018-05-10T05:35:08.818Z,17.30
2018-05-10T05:37:36.253Z,17.30
2018-05-10T05:40:04.459Z,17.20
2018-05-10T05:42:31.897Z,17.20
2018-05-10T05:45:00.107Z,17.30
2018-05-10T05:47:27.553Z,17.20
2018-05-10T05:49:54.991Z,17.30
2018-05-10T05:52:22.444Z,17.30
2018-05-10T05:54:50.643Z,17.30
2018-05-10T05:57:18.082Z,17.30
2018-05-10T05:59:46.275Z,17.30
2018-05-10T06:02:13.719Z,17.30
2018-05-10T06:04:41.155Z,17.40
2018-05-10T06:07:09.358Z,17.40
2018-05-10T06:09:36.791Z,17.40
2018-05-10T06:12:04.982Z,17.50
2018-05-10T06:14:32.447Z,17.40
2018-05-10T06:16:59.873Z,17.50
2018-05-10T06:19:28.077Z,17.50
2018-05-10T06:21:55.506Z,17.50
2018-05-10T06:24:23.719Z,17.60
2018-05-10T06:26:51.145Z,17.60
2018-05-10T06:29:19.363Z,17.60
2018-05-10T06:31:46.789Z,17.60
2018-05-10T06:34:15.270Z,17.70
2018-05-10T06:36:42.708Z,17.70
2018-05-10T06:39:10.923Z,17.70
2018-05-10T06:41:38.368Z,17.70
2018-05-10T06:46:39.848Z,17.70
2018-05-10T06:49:07.291Z,17.70
2018-05-10T06:51:34.723Z,17.70
2018-05-10T06:54:02.938Z,17.80
2018-05-10T06:56:30.396Z,17.80
2018-05-10T06:58:57.836Z,17.80
2018-05-10T07:01:25.278Z,17.90
2018-05-10T07:03:53.486Z,18.00
2018-05-10T07:06:20.922Z,18.00
2018-05-10T07:08:48.375Z,18.10
2018-05-10T07:11:15.810Z,18.10
2018-05-10T07:13:44.028Z,18.10
2018-05-10T07:16:11.537Z,18.10
2018-05-10T07:18:38.979Z,18.10
2018-05-10T07:21:06.456Z,18.10
2018-05-10T07:23:33.861Z,18.10
2018-05-10T07:26:01.362Z,18.10
2018-05-10T07:28:28.802Z,18.10
2018-05-10T07:30:56.230Z,18.00
2018-05-10T07:33:23.666Z,18.10
2018-05-10T07:35:51.138Z,18.10
2018-05-10T07:38:18.662Z,18.00
2018-05-10T07:40:46.862Z,17.90
2018-05-10T07:43:14.323Z,17.90
2018-05-10T07:45:41.759Z,17.90
2018-05-10T07:48:09.967Z,17.90
2018-05-10T07:50:37.416Z,17.90
2018-05-10T07:53:04.921Z,17.90
2018-05-10T07:55:32.295Z,17.80
2018-05-10T07:58:00.524Z,17.90
2018-05-10T08:00:27.966Z,17.90
2018-05-10T08:02:55.491Z,17.90
2018-05-10T08:05:23.692Z,17.80
2018-05-10T08:07:51.134Z,17.80
2018-05-10T08:10:18.567Z,17.90
2018-05-10T08:12:46.006Z,17.90
2018-05-10T08:15:13.460Z,17.90
2018-05-10T08:20:03.905Z,18.00
2018-05-10T08:22:32.097Z,17.90
2018-05-10T08:24:59.533Z,17.90
2018-05-10T08:27:39.627Z,17.90
2018-05-10T08:30:07.069Z,17.90
2018-05-10T08:32:34.497Z,17.90
2018-05-10T08:35:02.783Z,18.10
2018-05-10T08:37:31.049Z,18.00
2018-05-10T08:39:59.249Z,18.00
2018-05-10T08:42:26.690Z,17.90
2018-05-10T08:44:54.967Z,18.10
2018-05-10T08:47:22.406Z,18.00
2018-05-10T08:49:49.859Z,18.10
2018-05-10T08:52:17.291Z,18.10
2018-05-10T08:54:44.735Z,18.20
2018-05-10T08:57:12.184Z,18.20
2018-05-10T08:59:39.623Z,18.10
2018-05-10T09:02:07.058Z,18.10
2018-05-10T09:04:35.272Z,18.20
2018-05-10T09:07:02.702Z,18.20
2018-05-10T09:09:30.970Z,18.30
2018-05-10T09:11:59.175Z,18.20
2018-05-10T09:14:26.617Z,18.20
2018-05-10T09:16:54.062Z,18.30
2018-05-10T09:19:22.269Z,18.20
2018-05-10T09:21:49.705Z,18.20
2018-05-10T09:24:18.443Z,18.20
2018-05-10T09:26:45.870Z,18.20
2018-05-10T09:29:13.314Z,18.30
2018-05-10T09:31:40.765Z,18.30
2018-05-10T09:34:08.193Z,18.30
2018-05-10T09:36:36.394Z,18.40
2018-05-10T09:39:03.855Z,18.40
2018-05-10T09:41:32.235Z,18.60
2018-05-10T09:43:59.771Z,18.50
2018-05-10T09:46:27.365Z,18.60
2018-05-10T09:48:54.813Z,18.60
2018-05-10T09:51:22.248Z,18.60
2018-05-10T09:53:50.455Z,18.70
2018-05-10T09:56:17.971Z,18.70
2018-05-10T09:58:45.457Z,18.70
2018-05-10T10:01:12.887Z,18.80
2018-05-10T10:03:40.343Z,18.90
2018-05-10T10:06:08.709Z,19.00
2018-05-10T10:08:36.931Z,19.10
2018-05-10T10:11:04.387Z,19.10
2018-05-10T10:13:32.565Z,19.30
2018-05-10T10:16:00.098Z,19.30
2018-05-10T10:18:28.291Z,19.50
2018-05-10T10:23:29.519Z,19.60
2018-05-10T10:25:56.946Z,19.70
2018-05-10T10:28:24.396Z,19.90
2018-05-10T10:30:51.904Z,20.10
2018-05-10T10:33:21.154Z,20.60
2018-05-10T10:35:48.590Z,20.50
2018-05-10T10:38:16.605Z,20.90
2018-05-10T10:40:44.007Z,21.20
2018-05-10T10:43:11.564Z,21.30
2018-05-10T10:45:39.126Z,21.40
2018-05-10T10:48:06.569Z,21.50
2018-05-10T10:50:34.780Z,21.60
2018-05-10T10:53:02.205Z,21.50
2018-05-10T10:55:30.856Z,21.50
2018-05-10T10:57:58.693Z,21.50
2018-05-10T11:00:26.126Z,21.50
2018-05-10T11:02:53.553Z,21.60
2018-05-10T11:05:21.773Z,21.60
2018-05-10T11:07:57.402Z,21.60
2018-05-10T11:10:25.857Z,21.80
2018-05-10T11:12:55.937Z,21.70
2018-05-10T11:15:23.912Z,21.60
2018-05-10T11:17:52.248Z,21.70
2018-05-10T11:20:19.690Z,21.60
2018-05-10T11:22:47.954Z,21.80
2018-05-10T11:25:15.429Z,21.70
2018-05-10T11:27:43.692Z,21.70
2018-05-10T11:30:11.155Z,21.70
2018-05-10T11:32:39.346Z,21.70
2018-05-10T11:35:07.139Z,21.60
2018-05-10T11:37:34.603Z,21.60
2018-05-10T11:40:02.288Z,21.50
2018-05-10T11:42:29.782Z,21.50
2018-05-10T11:44:57.991Z,21.30
2018-05-10T11:47:25.428Z,21.30
2018-05-10T11:49:52.872Z,21.20
2018-05-10T11:52:21.077Z,21.30
2018-05-10T11:54:48.519Z,21.30
2018-05-10T11:57:16.141Z,21.30
2018-05-10T11:59:43.560Z,21.30
2018-05-10T12:02:10.990Z,21.30
2018-05-10T12:04:38.435Z,21.30
2018-05-10T12:09:40.654Z,21.20
2018-05-10T12:12:08.174Z,21.20
2018-05-10T12:14:36.550Z,21.00
2018-05-10T12:17:04.929Z,20.90
2018-05-10T12:19:32.848Z,20.90
2018-05-10T12:22:00.815Z,20.90
2018-05-10T12:24:28.246Z,20.90
2018-05-10T12:26:55.674Z,20.90
2018-05-10T12:29:23.895Z,20.80
2018-05-10T12:31:51.331Z,20.80
2018-05-10T12:34:18.770Z,20.80
2018-05-10T12:36:46.981Z,20.90
2018-05-10T12:39:14.418Z,20.80
2018-05-10T12:41:41.915Z,20.90
2018-05-10T12:44:10.076Z,20.70
2018-05-10T12:46:37.518Z,20.70
2018-05-10T12:49:04.999Z,20.70
2018-05-10T12:51:32.454Z,20.80
2018-05-10T12:53:59.902Z,20.80
2018-05-10T12:56:28.422Z,20.80
2018-05-10T12:58:56.551Z,20.70
2018-05-10T13:01:23.987Z,20.70
2018-05-10T13:03:51.423Z,20.50
2018-05-10T13:06:19.639Z,20.20
2018-05-10T13:08:47.082Z,20.20
2018-05-10T13:11:14.522Z,20.20
2018-05-10T13:13:42.778Z,20.20
2018-05-10T13:16:10.288Z,20.20
2018-05-10T13:18:38.454Z,20.20
2018-05-10T13:21:05.977Z,20.10
2018-05-10T13:23:34.193Z,20.00
2018-05-10T13:26:01.623Z,20.00
2018-05-10T13:28:29.874Z,19.80
2018-05-10T13:30:57.311Z,19.80
2018-05-10T13:33:24.750Z,19.80
2018-05-10T13:35:52.226Z,19.90
2018-05-10T13:38:19.683Z,19.90
2018-05-10T13:40:47.110Z,20.00
2018-05-10T13:43:14.637Z,19.90
2018-05-10T13:45:42.914Z,19.80
2018-05-10T13:48:11.155Z,19.80
2018-05-10T13:50:38.651Z,19.80
2018-05-10T13:53:07.048Z,19.60
2018-05-10T13:55:35.195Z,19.50
2018-05-10T13:58:03.393Z,19.50
2018-05-10T14:00:30.833Z,19.40
2018-05-10T14:02:59.029Z,19.20
2018-05-10T14:05:26.462Z,19.20
2018-05-10T14:07:54.660Z,18.90
2018-05-10T14:10:22.107Z,18.80
2018-05-10T14:12:49.642Z,18.80
2018-05-10T14:15:17.160Z,18.50
2018-05-10T14:17:44.667Z,18.30
2018-05-10T14:20:12.871Z,18.20
2018-05-10T14:22:40.328Z,18.20
2018-05-10T14:25:07.797Z,18.00
2018-05-10T14:27:35.237Z,18.00
2018-05-10T14:30:02.695Z,17.80
2018-05-10T14:32:30.310Z,17.70
2018-05-10T14:34:57.776Z,17.60
2018-05-10T14:37:25.186Z,17.60
2018-05-10T14:39:52.638Z,17.50
2018-05-10T14:42:20.058Z,17.50
2018-05-10T14:44:48.262Z,17.40
2018-05-10T14:47:15.686Z,17.40
2018-05-10T14:49:43.907Z,17.20
2018-05-10T14:52:11.330Z,17.10
2018-05-10T14:54:39.538Z,17.00
2018-05-10T14:57:06.967Z,17.00
2018-05-10T14:59:34.503Z,17.00
2018-05-10T15:02:02.610Z,16.90
2018-05-10T15:04:30.077Z,16.90
2018-05-10T15:06:57.504Z,16.90
2018-05-10T15:09:25.715Z,16.90
2018-05-10T15:11:53.138Z,16.90
2018-05-10T15:14:21.334Z,16.80
2018-05-10T15:16:48.761Z,16.80
2018-05-10T15:19:16.957Z,16.70
2018-05-10T15:21:44.403Z,16.60
2018-05-10T15:24:12.659Z,16.70
2018-05-10T15:26:40.095Z,16.70
2018-05-10T15:29:07.538Z,16.70
2018-05-10T15:31:35.021Z,16.70
2018-05-10T15:34:02.408Z,16.70
2018-05-10T15:36:30.608Z,16.80
2018-05-10T15:38:58.072Z,16.80
2018-05-10T15:41:25.486Z,16.80
2018-05-10T15:43:53.682Z,16.80
2018-05-10T15:46:21.115Z,16.80
2018-05-10T15:48:49.332Z,16.80
2018-05-10T15:51:16.812Z,16.80
2018-05-10T15:53:44.251Z,16.80
2018-05-10T15:56:12.695Z,16.80
2018-05-10T15:58:40.956Z,16.90
2018-05-10T16:01:08.486Z,16.90
2018-05-10T16:03:35.927Z,16.80
2018-05-10T16:06:03.364Z,16.70
2018-05-10T16:08:30.785Z,16.70
2018-05-10T16:10:58.218Z,16.70
2018-05-10T16:13:25.665Z,16.60
2018-05-10T16:15:53.103Z,16.60
2018-05-10T16:18:20.607Z,16.70
2018-05-10T16:20:48.052Z,16.80
2018-05-10T16:23:15.495Z,16.90
2018-05-10T16:25:42.945Z,17.00
2018-05-10T16:28:10.512Z,17.00
2018-05-10T16:30:37.951Z,17.10
2018-05-10T16:33:05.393Z,17.00
2018-05-10T16:35:32.834Z,17.00
2018-05-10T16:38:01.032Z,17.00
2018-05-10T16:40:28.558Z,17.00
2018-05-10T16:42:56.762Z,17.10
2018-05-10T16:45:24.198Z,17.10
2018-05-10T16:47:52.419Z,17.00
2018-05-10T16:50:19.862Z,17.00
2018-05-10T16:52:47.317Z,17.00
2018-05-10T16:55:14.792Z,17.00
2018-05-10T16:57:43.220Z,17.00
2018-05-10T17:00:11.439Z,17.00
2018-05-10T17:02:38.875Z,17.00
2018-05-10T17:05:06.325Z,17.00
2018-05-10T17:07:33.759Z,17.00
2018-05-10T17:10:01.195Z,17.00
2018-05-10T17:12:28.635Z,17.00
2018-05-10T17:14:56.130Z,17.00
2018-05-10T17:17:23.579Z,17.00
2018-05-10T17:19:51.015Z,16.90
2018-05-10T17:22:18.449Z,16.90
2018-05-10T17:24:45.877Z,16.90
2018-05-10T17:27:13.335Z,16.90
2018-05-10T17:29:40.761Z,16.90
2018-05-10T17:32:08.203Z,16.90
2018-05-10T17:34:35.650Z,16.80
2018-05-10T17:37:03.085Z,16.80
2018-05-10T17:39:30.514Z,16.80
2018-05-10T17:41:57.967Z,16.70
2018-05-10T17:44:26.227Z,16.70
2018-05-10T17:46:53.658Z,16.60
2018-05-10T17:49:21.108Z,16.60
2018-05-10T17:51:48.550Z,16.70
2018-05-10T17:54:15.970Z,16.60
2018-05-10T17:56:44.263Z,16.50
2018-05-10T17:59:11.691Z,16.40
2018-05-10T18:01:39.140Z,16.40
2018-05-10T18:04:06.561Z,16.40
2018-05-10T18:06:35.356Z,16.40
2018-05-10T18:09:02.811Z,16.30
2018-05-10T18:11:30.254Z,16.30
2018-05-10T18:13:57.744Z,16.30
2018-05-10T18:16:26.308Z,16.20
2018-05-10T18:18:53.777Z,16.30
2018-05-10T18:21:21.209Z,16.30
2018-05-10T18:23:48.651Z,16.30
2018-05-10T18:26:16.212Z,16.20
2018-05-10T18:28:43.649Z,16.30
2018-05-10T18:31:11.856Z,16.20
2018-05-10T18:33:39.292Z,16.20
2018-05-10T18:36:07.376Z,16.10
2018-05-10T18:38:35.114Z,16.00
2018-05-10T18:41:03.551Z,16.00
2018-05-10T18:43:32.226Z,16.00
2018-05-10T18:45:59.826Z,16.00
2018-05-10T18:48:28.457Z,15.90
2018-05-10T18:50:56.123Z,15.90
2018-05-10T18:53:23.982Z,15.90
2018-05-10T18:55:57.322Z,15.90
2018-05-10T18:58:25.019Z,16.00
2018-05-10T19:00:54.515Z,16.00
2018-05-10T19:03:24.812Z,16.00
2018-05-10T19:05:52.725Z,16.00
2018-05-10T19:08:20.851Z,16.00
2018-05-10T19:10:48.651Z,16.00
2018-05-10T19:13:16.860Z,16.00
2018-05-10T19:15:44.298Z,16.00
2018-05-10T19:18:11.827Z,16.00
2018-05-10T19:20:40.106Z,16.00
2018-05-10T19:23:08.304Z,16.00
2018-05-10T19:25:35.885Z,15.90
2018-05-10T19:28:03.403Z,15.90
2018-05-10T19:30:31.746Z,15.90
2018-05-10T19:32:59.163Z,15.90
2018-05-10T19:35:26.699Z,15.90
2018-05-10T19:37:54.977Z,15.90
2018-05-10T19:40:23.242Z,15.90
2018-05-10T19:42:50.716Z,15.90
2018-05-10T19:45:19.068Z,15.90
2018-05-10T19:47:46.440Z,15.90
2018-05-10T19:50:14.651Z,15.90
2018-05-10T19:52:42.120Z,15.90
2018-05-10T19:55:09.629Z,15.90
2018-05-10T19:57:37.924Z,15.90
2018-05-10T20:00:06.115Z,15.90
2018-05-10T20:02:33.555Z,15.90
2018-05-10T20:05:00.997Z,15.90
2018-05-10T20:07:28.491Z,15.80
2018-05-10T20:09:55.919Z,15.80
2018-05-10T20:12:24.199Z,15.70
2018-05-10T20:14:51.649Z,15.60
2018-05-10T20:17:19.847Z,15.60
2018-05-10T20:19:47.275Z,15.60
2018-05-10T20:22:15.470Z,15.60
2018-05-10T20:24:42.914Z,15.60
2018-05-10T20:27:11.141Z,15.60
2018-05-10T20:29:38.635Z,15.60
2018-05-10T20:32:06.898Z,15.60
2018-05-10T20:34:34.287Z,15.60
2018-05-10T20:37:02.500Z,15.60
2018-05-10T20:39:30.016Z,15.60
2018-05-10T20:41:58.246Z,15.70
2018-05-10T20:44:25.681Z,15.70
2018-05-10T20:46:53.110Z,15.70
2018-05-10T20:49:21.300Z,15.80
2018-05-10T20:51:48.754Z,15.80
2018-05-10T20:54:16.191Z,15.70
2018-05-10T20:56:44.400Z,15.70
2018-05-10T20:59:11.830Z,15.70
2018-05-10T21:01:40.039Z,15.60
2018-05-10T21:04:07.479Z,15.60
2018-05-10T21:06:34.910Z,15.60
2018-05-10T21:09:03.130Z,15.70
2018-05-10T21:11:30.561Z,15.60
2018-05-10T21:13:57.991Z,15.70
2018-05-10T21:16:26.710Z,15.70
2018-05-10T21:18:54.078Z,15.70
2018-05-10T21:21:21.521Z,15.70
2018-05-10T21:23:48.951Z,15.70
2018-05-10T21:26:17.165Z,15.70
2018-05-10T21:28:44.595Z,15.70
2018-05-10T21:31:12.806Z,15.70
2018-05-10T21:33:40.244Z,15.60
2018-05-10T21:36:07.679Z,15.70
2018-05-10T21:38:35.885Z,15.70
2018-05-10T21:41:03.329Z,15.70
2018-05-10T21:43:30.764Z,15.70
2018-05-10T21:45:58.974Z,15.70
2018-05-10T21:48:26.415Z,15.70
2018-05-10T21:50:53.865Z,15.70
2018-05-10T21:53:21.423Z,15.70
2018-05-10T21:55:48.758Z,15.70
2018-05-10T21:58:18.999Z,15.70
2018-05-10T22:00:47.192Z,15.60
2018-05-10T22:03:14.646Z,15.60
2018-05-10T22:05:42.091Z,15.60
2018-05-10T22:08:10.290Z,15.50
2018-05-10T22:10:37.731Z,15.40
2018-05-10T22:13:05.170Z,15.50
2018-05-10T22:15:33.370Z,15.40
2018-05-10T22:18:00.811Z,15.40
2018-05-10T22:20:28.250Z,15.30
2018-05-10T22:22:56.460Z,15.30
2018-05-10T22:25:23.900Z,15.20
2018-05-10T22:27:51.338Z,15.20
2018-05-10T22:30:19.544Z,15.20
2018-05-10T22:32:46.987Z,15.20
2018-05-10T22:35:14.509Z,15.10
2018-05-10T22:37:42.732Z,15.10
2018-05-10T22:40:10.161Z,15.10
2018-05-10T22:42:38.376Z,15.10
2018-05-10T22:45:05.819Z,15.00
2018-05-10T22:47:33.263Z,15.10
2018-05-10T22:50:01.466Z,15.00
2018-05-10T22:52:28.917Z,15.00
2018-05-10T22:54:56.345Z,15.00
2018-05-10T22:57:24.564Z,15.00
2018-05-10T22:59:52.016Z,14.90
2018-05-10T23:02:19.432Z,15.00
2018-05-10T23:04:47.632Z,14.90
2018-05-10T23:07:15.075Z,14.90
2018-05-10T23:09:42.550Z,14.90
2018-05-10T23:12:09.954Z,14.90
2018-05-10T23:14:37.370Z,14.90
2018-05-10T23:17:04.826Z,14.90
2018-05-10T23:19:32.268Z,14.80
2018-05-10T23:21:59.715Z,14.80
2018-05-10T23:24:27.151Z,14.80
2018-05-10T23:26:55.359Z,14.70
2018-05-10T23:29:22.789Z,14.70
2018-05-10T23:31:51.008Z,14.60
2018-05-10T23:34:18.430Z,14.60
2018-05-10T23:36:46.647Z,14.60
2018-05-10T23:39:14.081Z,14.60
2018-05-10T23:41:41.523Z,14.60
2018-05-10T23:44:08.961Z,14.60
2018-05-10T23:46:36.398Z,14.50
2018-05-10T23:49:03.825Z,14.40
2018-05-10T23:51:31.265Z,14.40
2018-05-10T23:53:58.707Z,14.30
2018-05-10T23:56:26.404Z,14.10
2018-05-10T23:58:53.833Z,14.20
